createdAt,value
2017-11-13T00:00:22.173Z,72.50
2017-11-13T00:02:52.933Z,72.50
2017-11-13T00:05:20.708Z,72.10
2017-11-13T00:07:49.356Z,72.00
2017-11-13T00:10:17.055Z,72.10
2017-11-13T00:12:44.482Z,72.10
2017-11-13T00:15:11.996Z,72.20
2017-11-13T00:17:40.206Z,72.50
2017-11-13T00:20:07.772Z,72.40
2017-11-13T00:22:35.215Z,72.60
2017-11-13T00:25:02.890Z,72.70
2017-11-13T00:27:31.202Z,72.90
2017-11-13T00:29:58.668Z,73.00
2017-11-13T00:32:26.121Z,73.10
2017-11-13T00:34:54.172Z,73.30
2017-11-13T00:37:21.661Z,73.40
2017-11-13T00:39:49.979Z,73.50
2017-11-13T00:42:17.885Z,73.50
2017-11-13T00:44:45.840Z,73.80
2017-11-13T00:47:13.316Z,73.80
2017-11-13T00:49:41.504Z,73.90
2017-11-13T00:52:08.936Z,73.80
2017-11-13T00:54:37.379Z,73.50
2017-11-13T00:57:04.850Z,73.40
2017-11-13T00:59:32.711Z,73.40
2017-11-13T01:02:00.265Z,73.60
2017-11-13T01:04:29.402Z,73.60
2017-11-13T01:06:57.447Z,73.70
2017-11-13T01:09:25.130Z,73.70
2017-11-13T01:11:52.850Z,73.50
2017-11-13T01:14:20.330Z,73.50
2017-11-13T01:16:47.798Z,73.50
2017-11-13T01:19:15.255Z,73.40
2017-11-13T01:21:42.777Z,73.40
2017-11-13T01:24:10.975Z,73.40
2017-11-13T01:26:38.449Z,73.20
2017-11-13T01:29:07.402Z,73.40
2017-11-13T01:31:35.301Z,73.40
2017-11-13T01:34:02.738Z,73.40
2017-11-13T01:36:30.222Z,74.00
2017-11-13T01:38:58.066Z,73.60
2017-11-13T01:41:25.520Z,73.90
2017-11-13T01:43:53.508Z,74.20
2017-11-13T01:46:20.984Z,74.30
2017-11-13T01:48:50.350Z,74.60
2017-11-13T01:51:18.200Z,74.60
2017-11-13T01:53:45.648Z,74.60
2017-11-13T01:56:13.678Z,74.60
2017-11-13T01:58:42.322Z,74.80
2017-11-13T02:01:09.764Z,74.70
2017-11-13T02:03:37.575Z,74.60
2017-11-13T02:06:05.335Z,74.40
2017-11-13T02:08:33.118Z,75.30
2017-11-13T02:11:02.805Z,74.30
2017-11-13T02:13:30.254Z,74.30
2017-11-13T02:15:57.749Z,74.20
2017-11-13T02:18:25.672Z,74.10
2017-11-13T02:20:53.142Z,74.00
2017-11-13T02:23:20.578Z,74.00
2017-11-13T02:25:48.011Z,73.90
2017-11-13T02:28:15.468Z,73.60
2017-11-13T02:30:43.184Z,73.40
2017-11-13T02:33:11.399Z,73.20
2017-11-13T02:35:38.925Z,73.20
2017-11-13T02:38:07.490Z,73.20
2017-11-13T02:40:34.951Z,73.10
2017-11-13T02:43:03.100Z,73.40
2017-11-13T02:45:30.538Z,73.50
2017-11-13T02:47:58.555Z,73.20
2017-11-13T02:50:27.486Z,73.60
2017-11-13T02:52:54.906Z,72.90
2017-11-13T02:55:23.633Z,72.40
2017-11-13T02:57:52.146Z,72.40
2017-11-13T03:00:19.579Z,72.40
2017-11-13T03:02:47.035Z,73.00
2017-11-13T03:05:14.929Z,72.40
2017-11-13T03:07:42.942Z,72.40
2017-11-13T03:10:10.413Z,72.40
2017-11-13T03:12:38.456Z,72.20
2017-11-13T03:15:07.199Z,72.10
2017-11-13T03:17:34.634Z,72.10
2017-11-13T03:20:02.642Z,72.10
2017-11-13T03:22:31.881Z,72.20
2017-11-13T03:24:59.314Z,72.20
2017-11-13T03:27:28.171Z,72.40
2017-11-13T03:29:55.625Z,72.40
2017-11-13T03:32:23.071Z,72.40
2017-11-13T03:34:52.350Z,72.60
2017-11-13T03:37:20.466Z,72.70
2017-11-13T03:39:48.426Z,72.80
2017-11-13T03:42:15.874Z,73.00
2017-11-13T03:44:43.839Z,73.10
2017-11-13T03:47:11.582Z,73.40
2017-11-13T03:49:39.876Z,73.40
2017-11-13T03:52:07.335Z,73.50
2017-11-13T03:54:34.791Z,73.80
2017-11-13T03:57:02.223Z,73.80
2017-11-13T03:59:30.909Z,74.00
2017-11-13T04:01:58.339Z,74.00
2017-11-13T04:04:27.015Z,74.30
2017-11-13T04:06:55.979Z,74.50
2017-11-13T04:09:24.369Z,74.50
2017-11-13T04:11:52.565Z,74.90
2017-11-13T04:14:20.406Z,74.90
2017-11-13T04:16:47.861Z,74.90
2017-11-13T04:19:16.642Z,75.50
2017-11-13T04:21:44.397Z,75.20
2017-11-13T04:24:12.025Z,75.30
2017-11-13T04:26:40.535Z,75.40
2017-11-13T04:29:07.981Z,75.50
2017-11-13T04:31:35.890Z,75.30
2017-11-13T04:34:04.098Z,75.20
2017-11-13T04:36:31.574Z,75.10
2017-11-13T04:38:59.016Z,75.00
2017-11-13T04:41:26.576Z,74.90
2017-11-13T04:43:54.277Z,74.80
2017-11-13T04:46:21.999Z,74.80
2017-11-13T04:48:51.646Z,74.80
2017-11-13T04:51:19.084Z,74.70
2017-11-13T04:53:47.001Z,74.90
2017-11-13T04:56:15.319Z,74.70
2017-11-13T04:58:43.509Z,74.70
2017-11-13T05:01:11.354Z,74.50
2017-11-13T05:03:39.323Z,74.60
2017-11-13T05:06:07.006Z,74.50
2017-11-13T05:08:34.666Z,74.30
2017-11-13T05:11:02.110Z,74.20
2017-11-13T05:13:29.568Z,74.20
2017-11-13T05:15:57.003Z,74.20
2017-11-13T05:18:24.515Z,74.20
2017-11-13T05:20:51.954Z,74.40
2017-11-13T05:23:19.437Z,74.20
2017-11-13T05:25:47.684Z,74.30
2017-11-13T05:28:15.347Z,74.30
2017-11-13T05:30:43.213Z,74.10
2017-11-13T05:33:10.641Z,74.00
2017-11-13T05:35:38.103Z,73.80
2017-11-13T05:38:05.547Z,73.70
2017-11-13T05:40:33.348Z,73.50
2017-11-13T05:43:01.177Z,73.40
2017-11-13T05:45:28.738Z,73.50
2017-11-13T05:47:56.203Z,73.40
2017-11-13T05:50:24.209Z,73.50
2017-11-13T05:52:52.365Z,73.50
2017-11-13T05:55:20.734Z,73.60
2017-11-13T05:57:48.728Z,73.50
2017-11-13T06:00:16.188Z,73.50
2017-11-13T06:02:43.823Z,73.50
2017-11-13T06:05:11.586Z,73.30
2017-11-13T06:07:39.659Z,73.20
2017-11-13T06:10:07.192Z,73.20
2017-11-13T06:12:34.648Z,73.20
2017-11-13T06:15:02.511Z,72.90
2017-11-13T06:17:29.954Z,72.90
2017-11-13T06:19:57.429Z,72.80
2017-11-13T06:22:25.254Z,72.50
2017-11-13T06:24:53.466Z,72.60
2017-11-13T06:27:21.370Z,72.60
2017-11-13T06:29:48.807Z,72.40
2017-11-13T06:32:16.478Z,72.50
2017-11-13T06:34:43.924Z,72.50
2017-11-13T06:37:11.390Z,72.50
2017-11-13T06:39:38.919Z,72.40
2017-11-13T06:42:07.912Z,72.20
2017-11-13T06:44:35.715Z,72.10
2017-11-13T06:47:05.081Z,72.10
2017-11-13T06:49:32.774Z,72.00
2017-11-13T06:52:00.235Z,72.10
2017-11-13T06:54:28.147Z,72.20
2017-11-13T06:56:55.580Z,72.00
2017-11-13T06:59:24.136Z,72.10
2017-11-13T07:01:51.567Z,72.00
2017-11-13T07:04:19.366Z,72.10
2017-11-13T07:06:47.190Z,72.10
2017-11-13T07:09:15.530Z,72.20
2017-11-13T07:11:45.814Z,72.00
2017-11-13T07:14:13.595Z,72.00
2017-11-13T07:16:41.450Z,72.10
2017-11-13T07:19:08.896Z,72.10
2017-11-13T07:21:36.854Z,72.00
2017-11-13T07:24:04.326Z,72.00
2017-11-13T07:26:31.811Z,72.00
2017-11-13T07:28:59.824Z,72.20
2017-11-13T07:31:27.284Z,72.20
2017-11-13T07:33:55.083Z,72.20
2017-11-13T07:36:22.542Z,72.30
2017-11-13T07:38:50.058Z,72.30
2017-11-13T07:41:17.571Z,72.30
2017-11-13T07:43:45.410Z,72.20
2017-11-13T07:46:12.875Z,72.20
2017-11-13T07:48:41.731Z,72.20
2017-11-13T07:51:09.184Z,72.30
2017-11-13T07:53:36.667Z,72.30
2017-11-13T07:56:04.097Z,72.50
2017-11-13T07:58:32.132Z,72.60
2017-11-13T08:01:00.334Z,72.60
2017-11-13T08:03:28.638Z,72.60
2017-11-13T08:05:56.521Z,72.80
2017-11-13T08:08:24.294Z,73.00
2017-11-13T08:10:51.753Z,72.80
2017-11-13T08:13:19.226Z,72.70
2017-11-13T08:15:47.432Z,72.70
2017-11-13T08:18:14.892Z,72.70
2017-11-13T08:20:42.550Z,72.70
2017-11-13T08:23:10.067Z,72.70
2017-11-13T08:25:38.385Z,72.70
2017-11-13T08:28:05.829Z,72.80
2017-11-13T08:30:33.576Z,72.70
2017-11-13T08:33:01.775Z,72.80
2017-11-13T08:35:29.479Z,72.70
2017-11-13T08:37:57.084Z,72.80
2017-11-13T08:40:24.551Z,72.90
2017-11-13T08:42:52.255Z,72.90
2017-11-13T08:45:19.716Z,72.70
2017-11-13T08:47:47.154Z,72.70
2017-11-13T08:50:14.950Z,72.60
2017-11-13T08:52:43.992Z,72.60
2017-11-13T08:55:11.445Z,72.50
2017-11-13T08:57:39.415Z,72.80
2017-11-13T09:00:07.002Z,73.10
2017-11-13T09:02:34.453Z,73.40
2017-11-13T09:05:02.635Z,73.20
2017-11-13T09:07:31.392Z,73.10
2017-11-13T09:09:59.365Z,73.00
2017-11-13T09:12:26.843Z,73.00
2017-11-13T09:14:54.312Z,72.50
2017-11-13T09:17:22.403Z,72.40
2017-11-13T09:19:50.720Z,72.60
2017-11-13T09:22:18.174Z,71.90
2017-11-13T09:24:45.734Z,72.30
2017-11-13T09:27:13.203Z,72.40
2017-11-13T09:29:40.865Z,71.80
2017-11-13T09:32:08.295Z,71.20
2017-11-13T09:34:36.047Z,71.60
2017-11-13T09:37:06.734Z,71.60
2017-11-13T09:39:34.208Z,71.90
2017-11-13T09:42:01.726Z,71.70
2017-11-13T09:44:29.738Z,71.30
2017-11-13T09:46:57.193Z,71.40
2017-11-13T09:49:24.957Z,71.70
2017-11-13T09:51:52.424Z,71.50
2017-11-13T09:54:20.885Z,71.30
2017-11-13T09:56:48.504Z,71.20
2017-11-13T09:59:17.140Z,70.90
2017-11-13T10:01:44.773Z,70.50
2017-11-13T10:04:12.557Z,70.50
2017-11-13T10:06:40.438Z,69.20
2017-11-13T10:09:08.270Z,68.30
2017-11-13T10:11:36.090Z,68.50
2017-11-13T10:14:03.595Z,68.30
2017-11-13T10:16:31.055Z,66.20
2017-11-13T10:18:58.734Z,65.80
2017-11-13T10:21:26.223Z,64.80
2017-11-13T10:23:53.686Z,64.90
2017-11-13T10:26:21.120Z,65.80
2017-11-13T10:28:49.354Z,66.10
2017-11-13T10:31:16.858Z,66.10
2017-11-13T10:33:45.371Z,66.10
2017-11-13T10:36:12.899Z,66.00
2017-11-13T10:38:40.406Z,65.30
2017-11-13T10:41:07.852Z,65.40
2017-11-13T10:43:35.537Z,65.70
2017-11-13T10:46:03.100Z,65.80
2017-11-13T10:48:31.307Z,66.10
2017-11-13T10:50:58.996Z,66.20
2017-11-13T10:53:26.426Z,66.70
2017-11-13T10:55:54.914Z,64.10
2017-11-13T10:58:22.782Z,63.90
2017-11-13T11:00:50.290Z,63.80
2017-11-13T11:03:19.768Z,62.90
2017-11-13T11:05:47.787Z,63.20
2017-11-13T11:08:15.565Z,62.80
2017-11-13T11:10:43.579Z,62.10
2017-11-13T11:13:11.486Z,61.40
2017-11-13T11:15:55.337Z,62.00
2017-11-13T11:18:26.414Z,62.50
2017-11-13T11:20:59.434Z,62.50
2017-11-13T11:23:38.703Z,59.90
2017-11-13T11:26:17.859Z,59.60
2017-11-13T11:28:51.119Z,59.60
2017-11-13T11:31:23.000Z,60.50
2017-11-13T11:33:50.677Z,60.50
2017-11-13T11:36:33.042Z,59.30
2017-11-13T11:39:02.328Z,58.70
2017-11-13T11:41:29.777Z,58.70
2017-11-13T11:44:12.418Z,59.30
2017-11-13T11:46:40.729Z,57.70
2017-11-13T11:49:13.083Z,57.70
2017-11-13T11:51:40.630Z,55.90
2017-11-13T11:54:24.047Z,56.60
2017-11-13T11:59:57.283Z,54.90
2017-11-13T12:02:25.008Z,54.10
2017-11-13T12:04:53.584Z,53.50
2017-11-13T12:07:21.975Z,53.20
2017-11-13T12:09:49.438Z,53.60
2017-11-13T12:12:17.654Z,55.20
2017-11-13T12:14:45.146Z,55.20
2017-11-13T12:17:12.809Z,54.90
2017-11-13T12:19:41.278Z,55.80
2017-11-13T12:22:08.760Z,54.90
2017-11-13T12:24:36.839Z,54.10
2017-11-13T12:27:05.062Z,53.40
2017-11-13T12:29:33.938Z,53.30
2017-11-13T12:32:01.400Z,53.10
2017-11-13T12:34:29.051Z,51.90
2017-11-13T12:36:56.505Z,50.20
2017-11-13T12:39:23.954Z,50.20
2017-11-13T12:41:52.795Z,50.00
2017-11-13T12:44:20.576Z,50.80
2017-11-13T12:46:48.035Z,51.50
2017-11-13T12:49:16.096Z,52.00
2017-11-13T12:51:43.766Z,53.00
2017-11-13T12:54:11.786Z,54.10
2017-11-13T12:56:39.342Z,55.10
2017-11-13T12:59:07.964Z,55.30
2017-11-13T13:01:35.507Z,56.80
2017-11-13T13:04:03.416Z,56.40
2017-11-13T13:06:31.635Z,56.50
2017-11-13T13:08:59.429Z,56.50
2017-11-13T13:11:26.877Z,55.00
2017-11-13T13:13:54.346Z,52.90
2017-11-13T13:16:22.555Z,51.10
2017-11-13T13:18:50.470Z,51.20
2017-11-13T13:21:19.289Z,51.60
2017-11-13T13:23:46.730Z,51.80
2017-11-13T13:26:14.966Z,51.90
2017-11-13T13:28:42.455Z,52.00
2017-11-13T13:31:11.436Z,52.00
2017-11-13T13:33:38.870Z,51.90
2017-11-13T13:36:06.736Z,52.10
2017-11-13T13:38:34.162Z,51.70
2017-11-13T13:41:02.604Z,50.10
2017-11-13T13:43:30.582Z,50.00
2017-11-13T13:45:58.529Z,50.00
2017-11-13T13:48:25.974Z,49.00
2017-11-13T13:50:53.753Z,49.60
2017-11-13T13:53:21.197Z,50.30
2017-11-13T13:55:48.710Z,50.50
2017-11-13T13:58:17.459Z,49.70
2017-11-13T14:00:44.943Z,49.60
2017-11-13T14:03:13.158Z,49.30
2017-11-13T14:05:41.051Z,49.30
2017-11-13T14:08:10.363Z,49.70
2017-11-13T14:10:37.811Z,50.10
2017-11-13T14:13:05.779Z,51.10
2017-11-13T14:15:33.228Z,51.60
2017-11-13T14:18:00.788Z,51.60
2017-11-13T14:20:28.321Z,51.40
2017-11-13T14:22:55.779Z,51.00
2017-11-13T14:25:23.234Z,51.60
2017-11-13T14:27:52.993Z,52.00
2017-11-13T14:30:20.462Z,52.20
2017-11-13T14:32:48.669Z,51.80
2017-11-13T14:35:16.579Z,51.80
2017-11-13T14:37:44.036Z,51.70
2017-11-13T14:40:11.560Z,52.00
2017-11-13T14:42:39.469Z,52.00
2017-11-13T14:45:06.904Z,51.90
2017-11-13T14:47:34.437Z,52.00
2017-11-13T14:50:02.236Z,52.10
2017-11-13T14:52:29.694Z,52.20
2017-11-13T14:54:57.140Z,52.30
2017-11-13T14:57:25.537Z,52.40
2017-11-13T14:59:53.287Z,52.70
2017-11-13T15:02:20.779Z,52.90
2017-11-13T15:04:49.211Z,53.20
2017-11-13T15:07:17.296Z,53.20
2017-11-13T15:09:44.960Z,53.40
2017-11-13T15:12:13.116Z,54.10
2017-11-13T15:14:40.586Z,53.70
2017-11-13T15:17:08.670Z,53.90
2017-11-13T15:19:36.375Z,54.00
2017-11-13T15:22:03.845Z,54.50
2017-11-13T15:24:31.295Z,54.40
2017-11-13T15:26:59.149Z,54.70
2017-11-13T15:29:26.592Z,54.70
2017-11-13T15:31:54.828Z,55.70
2017-11-13T15:34:22.339Z,55.70
2017-11-13T15:36:49.798Z,56.00
2017-11-13T15:39:17.247Z,56.30
2017-11-13T15:41:44.962Z,56.70
2017-11-13T15:44:12.762Z,56.80
2017-11-13T15:46:40.995Z,57.20
2017-11-13T15:49:09.831Z,57.10
2017-11-13T15:51:38.105Z,57.40
2017-11-13T15:54:06.323Z,57.30
2017-11-13T15:56:33.912Z,57.30
2017-11-13T15:59:01.931Z,57.20
2017-11-13T16:01:29.394Z,57.40
2017-11-13T16:03:57.303Z,57.30
2017-11-13T16:06:24.778Z,57.40
2017-11-13T16:08:53.339Z,57.30
2017-11-13T16:11:20.828Z,57.30
2017-11-13T16:13:49.061Z,57.70
2017-11-13T16:16:16.502Z,57.70
2017-11-13T16:18:44.051Z,57.60
2017-11-13T16:21:12.102Z,57.80
2017-11-13T16:23:41.245Z,58.00
2017-11-13T16:26:08.692Z,58.00
2017-11-13T16:28:36.382Z,58.10
2017-11-13T16:31:03.819Z,58.20
2017-11-13T16:33:31.308Z,58.30
2017-11-13T16:35:59.766Z,58.70
2017-11-13T16:38:28.012Z,58.80
2017-11-13T16:40:55.557Z,58.70
2017-11-13T16:43:23.787Z,59.00
2017-11-13T16:45:52.039Z,59.00
2017-11-13T16:48:19.498Z,58.90
2017-11-13T16:50:47.274Z,59.10
2017-11-13T16:53:14.729Z,59.20
2017-11-13T16:55:42.194Z,59.20
2017-11-13T16:58:10.043Z,59.40
2017-11-13T17:00:38.111Z,60.30
2017-11-13T17:03:06.168Z,59.80
2017-11-13T17:05:34.553Z,59.80
2017-11-13T17:08:03.260Z,59.90
2017-11-13T17:10:30.712Z,60.00
2017-11-13T17:12:59.705Z,60.30
2017-11-13T17:15:28.173Z,60.30
2017-11-13T17:17:55.653Z,60.60
2017-11-13T17:20:23.101Z,60.70
2017-11-13T17:22:51.091Z,61.60
2017-11-13T17:25:19.311Z,61.70
2017-11-13T17:27:46.783Z,61.60
2017-11-13T17:30:14.266Z,61.20
2017-11-13T17:32:43.029Z,61.00
2017-11-13T17:35:11.271Z,61.00
2017-11-13T17:37:38.933Z,61.00
2017-11-13T17:40:06.407Z,60.60
2017-11-13T17:42:34.424Z,60.40
2017-11-13T17:45:02.763Z,61.50
2017-11-13T17:47:30.363Z,60.80
2017-11-13T17:49:58.782Z,61.00
2017-11-13T17:52:27.606Z,61.10
2017-11-13T17:54:56.149Z,61.10
2017-11-13T17:57:25.198Z,61.00
2017-11-13T17:59:55.547Z,60.90
2017-11-13T18:02:23.139Z,61.00
2017-11-13T18:04:52.144Z,61.20
2017-11-13T18:07:23.411Z,61.20
2017-11-13T18:09:51.736Z,61.20
2017-11-13T18:12:19.207Z,61.20
2017-11-13T18:14:46.692Z,61.30
2017-11-13T18:17:14.283Z,61.30
2017-11-13T18:19:42.543Z,62.10
2017-11-13T18:22:11.687Z,63.10
2017-11-13T18:24:39.256Z,63.10
2017-11-13T18:27:06.735Z,63.10
2017-11-13T18:29:34.175Z,63.20
2017-11-13T18:32:01.703Z,63.30
2017-11-13T18:34:29.183Z,63.20
2017-11-13T18:36:56.682Z,63.20
2017-11-13T18:39:24.905Z,63.10
2017-11-13T18:41:52.471Z,63.00
2017-11-13T18:44:20.276Z,63.00
2017-11-13T18:46:47.761Z,63.10
2017-11-13T18:49:15.709Z,63.90
2017-11-13T18:51:44.673Z,63.80
2017-11-13T18:54:12.127Z,63.50
2017-11-13T18:56:39.616Z,63.50
2017-11-13T18:59:07.666Z,63.60
2017-11-13T19:01:35.440Z,63.60
2017-11-13T19:04:03.351Z,63.50
2017-11-13T19:06:30.813Z,63.70
2017-11-13T19:08:58.625Z,63.70
2017-11-13T19:11:26.064Z,63.70
2017-11-13T19:13:53.800Z,63.50
2017-11-13T19:16:21.390Z,63.70
2017-11-13T19:18:48.935Z,63.90
2017-11-13T19:21:16.438Z,63.80
2017-11-13T19:23:45.172Z,64.10
2017-11-13T19:26:12.855Z,64.00
2017-11-13T19:28:41.407Z,64.20
2017-11-13T19:31:10.012Z,64.50
2017-11-13T19:33:37.612Z,64.80
2017-11-13T19:36:06.165Z,65.00
2017-11-13T19:38:33.635Z,65.00
2017-11-13T19:41:02.013Z,65.20
2017-11-13T19:43:30.241Z,65.20
2017-11-13T19:45:58.635Z,65.60
2017-11-13T19:48:26.851Z,65.70
2017-11-13T19:50:55.683Z,65.90
2017-11-13T19:53:23.815Z,65.80
2017-11-13T19:55:52.715Z,65.70
2017-11-13T19:58:20.712Z,65.70
2017-11-13T20:00:50.083Z,65.50
2017-11-13T20:03:18.616Z,65.30
2017-11-13T20:05:46.372Z,65.30
2017-11-13T20:08:14.220Z,65.40
2017-11-13T20:10:41.792Z,65.50
2017-11-13T20:13:09.329Z,65.70
2017-11-13T20:15:36.795Z,65.50
2017-11-13T20:18:04.520Z,65.60
2017-11-13T20:20:32.120Z,65.50
2017-11-13T20:23:00.100Z,65.60
2017-11-13T20:25:27.690Z,65.50
2017-11-13T20:27:55.144Z,65.60
2017-11-13T20:30:22.793Z,65.60
2017-11-13T20:32:50.269Z,65.70
2017-11-13T20:35:17.746Z,65.80
2017-11-13T20:37:46.520Z,65.70
2017-11-13T20:40:13.987Z,65.60
2017-11-13T20:42:43.563Z,65.70
2017-11-13T20:45:11.703Z,65.60
2017-11-13T20:47:39.161Z,65.70
2017-11-13T20:50:07.432Z,65.80
2017-11-13T20:52:35.233Z,65.80
2017-11-13T20:55:02.676Z,65.80
2017-11-13T20:57:31.439Z,65.80
2017-11-13T20:59:58.894Z,66.00
2017-11-13T21:02:26.906Z,65.90
2017-11-13T21:04:54.767Z,66.10
2017-11-13T21:07:23.147Z,66.20
2017-11-13T21:09:50.591Z,66.20
2017-11-13T21:12:18.041Z,66.30
2017-11-13T21:14:45.566Z,66.40
2017-11-13T21:17:13.032Z,66.40
2017-11-13T21:19:40.513Z,66.40
2017-11-13T21:22:08.870Z,66.30
2017-11-13T21:24:36.292Z,66.40
2017-11-13T21:27:04.496Z,67.00
2017-11-13T21:29:31.958Z,66.90
2017-11-13T21:31:59.596Z,67.00
2017-11-13T21:34:28.027Z,67.30
2017-11-13T21:36:56.189Z,67.30
2017-11-13T21:39:23.671Z,67.40
2017-11-13T21:41:51.106Z,67.40
2017-11-13T21:44:18.988Z,67.20
2017-11-13T21:46:46.435Z,67.40
2017-11-13T21:49:14.293Z,67.30
2017-11-13T21:51:42.369Z,67.20
2017-11-13T21:54:09.833Z,67.30
2017-11-13T21:56:37.265Z,67.20
2017-11-13T21:59:05.047Z,67.20
2017-11-13T22:01:32.814Z,67.20
2017-11-13T22:04:01.214Z,67.20
2017-11-13T22:06:28.732Z,67.30
2017-11-13T22:08:57.029Z,67.40
2017-11-13T22:11:24.484Z,67.40
2017-11-13T22:13:53.290Z,67.30
2017-11-13T22:16:20.795Z,67.30
2017-11-13T22:18:48.233Z,67.20
2017-11-13T22:21:15.783Z,67.20
2017-11-13T22:23:44.086Z,67.40
2017-11-13T22:26:11.690Z,67.40
2017-11-13T22:28:39.133Z,67.50
2017-11-13T22:31:06.579Z,67.70
2017-11-13T22:33:34.467Z,67.90
2017-11-13T22:36:01.899Z,68.10
2017-11-13T22:38:29.364Z,68.20
2017-11-13T22:40:56.863Z,68.10
2017-11-13T22:43:25.476Z,67.90
2017-11-13T22:45:52.909Z,67.90
2017-11-13T22:48:21.618Z,67.70
2017-11-13T22:50:50.132Z,67.70
2017-11-13T22:53:17.581Z,67.70
2017-11-13T22:55:45.116Z,67.50
2017-11-13T22:58:13.082Z,67.30
2017-11-13T23:00:41.732Z,67.30
2017-11-13T23:03:11.002Z,67.50
2017-11-13T23:05:38.827Z,67.50
2017-11-13T23:08:06.652Z,67.50
2017-11-13T23:10:34.813Z,67.50
2017-11-13T23:13:02.840Z,67.40
2017-11-13T23:15:30.987Z,67.60
2017-11-13T23:17:59.260Z,67.80
2017-11-13T23:20:28.397Z,67.90
2017-11-13T23:22:55.873Z,67.90
2017-11-13T23:25:23.327Z,67.80
2017-11-13T23:27:50.836Z,67.80
2017-11-13T23:30:18.281Z,67.80
2017-11-13T23:32:46.717Z,67.80
2017-11-13T23:35:14.196Z,67.80
2017-11-13T23:37:42.577Z,67.70
2017-11-13T23:40:10.025Z,67.80
2017-11-13T23:42:38.052Z,67.70
2017-11-13T23:45:05.573Z,67.70
2017-11-13T23:47:33.184Z,67.80
2017-11-13T23:50:01.272Z,67.80
2017-11-13T23:52:28.827Z,67.90
2017-11-13T23:54:56.303Z,67.90
2017-11-13T23:57:24.904Z,68.90
2017-11-13T23:59:52.345Z,68.10
